Latest Weather Observations for Hamilton

IDV60801

Issued at 11:31 pm EDT Monday 2 March 2015 (issued every 30 minutes, with the page automatically refreshed every 10 minutes)

About weather observations | Map of weather stations | Latest weather observations for VIC | Other Formats
Station Details ID: 090173 Name: HAMILTON AIRPORT Lat: -37.65 Lon: 142.06 Height: 241.1 m
Data from the previous 72 hours. | See also: Recent months at Hamilton
Date/Time
EDT
Temp
°C
App
Temp
°C
Dew
Point
Rel
Hum
%
Delta-T
°C
Wind Press
QNH
hPa
Press
MSL
hPa
Rain
since 9 am
mm
Dir
 
Spd
km/h
Gust
km/h
Spd
kts
Gust
kts
02/11:30pm 13.9 11.7 7.7 66 3.1 SSE 9 9 5 5 1017.2 1016.7 0.2
02/11:00pm 14.2 11.9 7.3 63 3.4 ESE 9 13 5 7 1016.8 1016.3 0.2
02/10:30pm 14.8 11.6 6.9 59 3.9 SE 13 17 7 9 1016.9 1016.4 0.2
02/10:00pm 14.9 11.7 7.0 59 3.9 SSE 13 17 7 9 1017.1 1016.6 0.2
02/09:30pm 15.1 12.2 6.7 57 4.1 SSE 11 15 6 8 1016.8 1016.3 0.2
02/09:00pm 15.3 11.7 6.6 56 4.3 SSE 15 20 8 11 1016.4 1015.9 0.2
02/08:30pm 15.7 12.1 6.7 55 4.5 SSE 15 20 8 11 1016.4 1015.9 0.2
02/08:00pm 16.5 12.5 6.6 52 4.9 SSE 17 22 9 12 1015.8 1015.2 0.2
02/07:30pm 17.9 13.4 7.0 49 5.5 S 20 28 11 15 1015.5 1014.9 0.2
02/07:00pm 18.6 13.4 7.4 48 5.7 S 24 32 13 17 1015.1 1014.6 0.2
02/06:30pm 20.1 15.1 8.1 46 6.3 SSW 24 33 13 18 1014.8 1014.3 0.2
02/06:00pm 22.5 17.5 4.5 31 9.0 S 20 26 11 14 1014.3 1013.8 0.2
02/05:30pm 23.1 18.1 4.6 30 9.3 SSW 20 28 11 15 1014.2 1013.7 0.2
02/05:00pm 24.0 20.0 4.9 29 9.7 WSW 15 24 8 13 1014.0 1013.5 0.2
02/04:30pm 24.5 21.2 4.3 27 10.1 WSW 11 19 6 10 1013.8 1013.3 0.2
02/04:00pm 24.4 21.5 4.7 28 10.0 SSE 9 17 5 9 1014.0 1013.5 0.2
02/03:30pm 24.5 20.5 4.8 28 10.0 WSW 15 22 8 12 1014.3 1013.8 0.2
02/03:00pm 24.0 19.9 4.4 28 9.8 SW 15 26 8 14 1014.7 1014.2 0.2
02/02:30pm 23.5 19.4 4.5 29 9.5 WSW 15 32 8 17 1015.3 1014.7 0.2
02/02:00pm 23.3 19.5 3.8 28 9.6 W 13 22 7 12 1015.6 1015.0 0.2
02/01:30pm 22.6 18.9 4.6 31 9.0 WNW 13 20 7 11 1015.9 1015.3 0.0
02/01:00pm 21.0 17.4 3.2 31 8.5 NNW 11 19 6 10 1016.3 1015.8 0.0
02/12:30pm 20.2 16.9 4.7 36 7.6 NNW 11 17 6 9 1017.2 1016.7 0.0
02/12:00pm 19.1 15.3 3.7 36 7.4 N 13 17 7 9 1017.5 1017.0 0.0
02/11:30am 19.4 15.2 1.9 31 8.1 N 13 19 7 10 1017.6 1017.1 0.0
02/11:00am 18.3 14.7 5.2 42 6.4 NE 13 17 7 9 1017.7 1017.2 0.0
02/10:30am 16.3 13.0 6.2 51 5.0 ENE 13 19 7 10 1017.7 1017.2 0.0
02/10:00am 14.4 10.8 6.7 60 3.8 ENE 15 17 8 9 1017.7 1017.2 0.0
02/09:30am 13.9 10.3 8.3 69 2.8 ENE 17 20 9 11 1017.9 1017.4 0.0
02/08:30am 9.6 6.6 7.9 89 0.8 ESE 13 15 7 8 1018.1 1017.6 0.0
02/08:00am 7.7 4.4 6.5 92 0.6 ESE 13 15 7 8 1017.9 1017.4 0.0
02/07:30am 6.7 2.9 5.7 93 0.5 ESE 15 17 8 9 1017.7 1017.2 0.0
02/07:00am 6.0 2.0 5.0 93 0.4 ESE 15 17 8 9 1017.5 1017.0 0.0
02/06:30am 6.8 2.5 5.4 91 0.6 E 17 19 9 10 1017.3 1016.8 0.0
02/06:00am 6.8 3.0 5.6 92 0.5 ESE 15 17 8 9 1017.1 1016.6 0.0
02/05:30am 6.3 2.5 5.6 95 0.3 E 15 19 8 10 1016.9 1016.4 0.0
02/05:00am 5.1 1.4 4.4 95 0.3 ESE 13 15 7 8 1017.4 1016.9 0.0
02/04:30am 4.9 1.5 4.2 95 0.3 ESE 11 13 6 7 1017.7 1017.2 0.0
02/04:00am 5.2 1.9 4.3 94 0.4 ESE 11 13 6 7 1017.8 1017.3 0.0
02/03:30am 5.7 1.7 4.8 94 0.4 ESE 15 17 8 9 1017.9 1017.4 0.0
02/03:00am 6.3 2.4 5.4 94 0.4 ESE 15 17 8 9 1018.2 1017.7 0.0
02/02:30am 6.4 3.0 5.7 95 0.3 ESE 13 15 7 8 1018.6 1018.1 0.0
02/02:00am 6.3 3.5 5.3 93 0.4 ESE 9 11 5 6 1018.9 1018.4 0.0
02/01:30am 7.9 3.9 6.8 93 0.5 E 17 20 9 11 1018.6 1018.1 0.0
02/01:00am 7.3 4.3 6.1 92 0.5 ESE 11 11 6 6 1019.2 1018.7 0.0
02/12:30am 7.8 4.5 6.3 90 0.7 SE 13 15 7 8 1019.6 1019.0 0.0
02/12:00am 9.1 6.0 7.2 88 0.9 SE 13 17 7 9 1019.8 1019.3 0.0
 
Date/Time
EDT
Temp
°C
App
Temp
°C
Dew
Point
Rel
Hum
%
Delta-T
°C
Wind Press
QNH
hPa
Press
MSL
hPa
Rain
since 9 am
mm
Dir
 
Spd
km/h
Gust
km/h
Spd
kts
Gust
kts
01/11:30pm 8.9 6.1 6.9 87 0.9 SE 11 15 6 8 1019.9 1019.4 0.0
01/11:00pm 9.7 6.6 7.3 85 1.1 SE 13 17 7 9 1020.0 1019.5 0.0
01/10:30pm 10.8 7.1 7.9 82 1.4 SSE 17 20 9 11 1019.6 1019.0 0.0
01/10:00pm 11.1 7.0 7.8 80 1.6 SE 19 22 10 12 1018.9 1018.4 0.0
01/09:30pm 11.8 7.7 7.9 77 1.9 SSE 19 22 10 12 1018.9 1018.4 0.0
01/09:00pm 12.3 8.6 7.8 74 2.2 SE 17 20 9 11 1018.3 1017.8 0.0
01/08:30pm 13.4 9.6 7.6 68 2.9 SSE 17 24 9 13 1018.4 1017.9 0.0
01/08:00pm 14.5 10.3 7.5 63 3.5 SSE 19 22 10 12 1018.2 1017.7 0.0
01/07:30pm 15.7 11.7 8.2 61 3.8 SE 19 24 10 13 1017.8 1017.3 0.0
01/07:00pm 16.3 11.7 8.0 58 4.2 SE 22 30 12 16 1017.5 1017.0 0.0
01/06:30pm 17.1 12.2 8.5 57 4.5 SE 24 28 13 15 1017.3 1016.8 0.0
01/06:00pm 18.3 12.5 8.0 51 5.3 SE 28 35 15 19 1017.3 1016.8 0.0
01/05:30pm 19.4 13.6 8.1 48 5.9 S 28 35 15 19 1017.0 1016.5 0.0
01/05:00pm 19.8 14.8 8.2 47 6.1 SSE 24 32 13 17 1016.9 1016.4 0.0
01/04:30pm 19.1 14.3 8.7 51 5.5 S 24 32 13 17 1017.0 1016.5 0.0
01/04:00pm 20.7 15.6 9.3 48 6.1 S 26 35 14 19 1016.9 1016.4 0.0
01/03:30pm 19.9 14.2 11.1 57 4.9 SSW 32 39 17 21 1016.7 1016.2 0.0
01/03:00pm 20.8 15.2 10.0 50 5.9 S 30 37 16 20 1016.8 1016.3 0.0
01/02:30pm 21.2 16.4 10.4 50 5.9 SSW 26 39 14 21 1016.5 1016.0 0.0
01/02:00pm 21.3 17.0 9.2 46 6.5 S 22 30 12 16 1016.5 1016.0 0.0
01/01:30pm 20.5 16.2 10.9 54 5.3 S 24 33 13 18 1016.3 1015.8 0.0
01/01:00pm 19.9 15.6 9.2 50 5.7 S 22 30 12 16 1016.3 1015.8 0.0
01/12:30pm 19.8 15.4 10.5 55 5.1 S 24 35 13 19 1016.5 1016.0 0.0
01/12:00pm 18.1 14.4 10.2 60 4.3 S 20 32 11 17 1016.5 1016.0 0.0
01/11:30am 17.4 12.5 11.4 68 3.3 S 28 35 15 19 1016.0 1015.4 0.0
01/11:00am 15.7 12.1 11.9 78 2.1 S 22 28 12 15 1015.6 1015.0 0.0
01/10:30am 15.0 10.8 12.3 84 1.5 S 26 30 14 16 1015.4 1014.6 0.0
01/10:00am 15.8 13.4 12.5 81 1.8 SSW 17 20 9 11 1014.7 1014.0 0.0
01/09:38am 15.0 12.5 12.3 84 1.5 SSW 17 20 9 11 1014.3 1013.6 0.0
01/09:30am 14.6 12.5 12.5 87 1.2 SSW 15 19 8 10 1014.2 1013.5 0.0
01/09:00am 13.7 11.6 12.4 92 0.7 SW 15 20 8 11 1013.7 1013.0 4.2
01/08:57am 13.5 11.3 12.2 92 0.7 SW 15 20 8 11 1013.7 1013.0 4.2
01/08:30am 12.8 11.3 12.0 95 0.4 WSW 11 15 6 8 1013.0 1012.3 4.2
01/08:02am 12.4 11.6 11.6 95 0.4 SW 7 13 4 7 1012.7 1012.0 4.2
01/08:00am 12.4 11.6 11.6 95 0.4 SW 7 13 4 7 1012.6 1011.9 4.2
01/07:30am 12.4 10.4 11.6 95 0.4 SW 13 17 7 9 1012.1 1011.4 4.2
01/07:00am 12.4 10.9 11.8 96 0.3 WSW 11 13 6 7 1011.6 1010.8 4.2
01/06:30am 12.6 11.1 11.8 95 0.4 W 11 13 6 7 1011.0 1010.2 4.2
01/06:00am 12.5 10.6 11.7 95 0.4 WSW 13 17 7 9 1010.5 1009.8 4.2
01/05:35am 12.2 10.9 11.4 95 0.4 WSW 9 11 5 6 1010.3 1009.6 4.2
01/05:30am 12.1 10.8 11.3 95 0.4 WSW 9 11 5 6 1010.2 1009.5 4.2
01/05:00am 12.7 10.8 11.8 94 0.5 WSW 13 15 7 8 1010.0 1009.3 4.2
01/04:49am 12.9 11.1 12.0 94 0.5 W 13 17 7 9 1009.8 1009.1 4.2
01/04:30am 13.2 11.1 12.3 94 0.5 WSW 15 19 8 10 1009.7 1009.0 4.2
01/04:00am 13.4 12.1 12.5 94 0.5 WNW 11 15 6 8 1009.5 1008.8 4.2
01/03:39am 13.0 11.9 12.1 94 0.5 W 9 11 5 6 1009.4 1008.7 4.0
01/03:30am 12.7 12.0 11.9 95 0.4 WSW 7 9 4 5 1009.4 1008.7 4.0
01/03:00am 11.7 10.2 10.6 93 0.6 WSW 9 9 5 5 1009.2 1008.5 4.0
01/02:30am 12.5 10.8 11.2 92 0.7 WSW 11 13 6 7 1009.3 1008.6 4.0
01/02:00am 12.6 10.9 11.2 91 0.7 WSW 11 13 6 7 1009.4 1008.7 4.0
01/01:30am 13.2 10.8 11.4 89 1.0 SW 15 19 8 10 1009.3 1008.6 4.0
01/01:00am 13.8 10.7 11.7 87 1.1 SW 19 26 10 14 1009.1 1008.4 4.0
01/12:30am 14.0 10.8 12.0 88 1.1 SW 20 28 11 15 1009.0 1008.3 4.0
01/12:00am 13.7 10.2 12.1 90 0.9 SW 22 28 12 15 1008.7 1008.0 4.0
 
Date/Time
EDT
Temp
°C
App
Temp
°C
Dew
Point
Rel
Hum
%
Delta-T
°C
Wind Press
QNH
hPa
Press
MSL
hPa
Rain
since 9 am
mm
Dir
 
Spd
km/h
Gust
km/h
Spd
kts
Gust
kts
28/11:30pm 14.3 9.8 12.5 89 1.0 SW 28 39 15 21 1008.6 1007.9 4.0
28/11:22pm 14.4 10.0 12.8 90 0.9 SSW 28 37 15 20 1008.6 1007.9 4.0
28/11:00pm 14.8 10.2 13.5 92 0.7 SW 30 41 16 22 1008.5 1007.8 4.0
28/10:30pm 15.3 12.1 14.2 93 0.6 SW 24 30 13 16 1008.3 1007.6 4.0
28/10:00pm 15.9 12.9 14.9 94 0.6 SSW 24 37 13 20 1007.5 1006.7 4.0
28/09:30pm 16.5 14.5 15.4 93 0.6 SSW 20 24 11 13 1007.3 1006.5 4.0
28/09:00pm 16.9 15.1 15.4 91 0.9 SW 19 24 10 13 1007.2 1006.4 4.0
28/08:30pm 17.5 16.4 16.4 93 0.7 SW 17 22 9 12 1006.7 1005.9 4.0
28/08:00pm 18.0 16.6 16.5 91 0.9 SW 19 24 10 13 1006.1 1005.4 3.6
28/07:30pm 18.3 18.5 16.8 91 0.9 SW 11 17 6 9 1005.9 1005.2 3.6
28/07:24pm 18.3 18.9 16.8 91 0.9 SW 9 17 5 9 1005.8 1005.1 3.6
28/07:00pm 18.3 16.9 16.6 90 1.0 SW 19 22 10 12 1005.1 1004.4 3.6
28/06:30pm 18.5 16.6 16.8 90 1.0 SW 22 32 12 17 1004.5 1003.7 3.6
28/06:23pm 18.6 16.4 16.9 90 1.0 SW 24 35 13 19 1004.6 1003.9 3.4
28/06:08pm 18.6 12.5 16.6 88 1.2 WSW 44 65 24 35 1004.7 1004.0 2.6
28/06:00pm 18.2 11.2 15.3 83 1.7 WSW 46 74 25 40 1004.8 1004.1 1.2
28/05:59pm 18.4 11.8 15.3 82 1.8 WSW 44 74 24 40 1004.6 1003.9 1.0
28/05:57pm 21.0 15.4 15.5 71 3.3 WSW 39 65 21 35 1004.4 1003.6 0.4
28/05:56pm 22.3 17.5 15.6 66 4.1 SW 35 61 19 33 1004.3 1003.5 0.0
28/05:52pm 24.2 20.5 15.1 56 5.5 SW 28 44 15 24 1003.9 1003.1 0.0
28/05:30pm 25.3 21.3 15.3 54 6.1 S 30 37 16 20 1001.7 1001.0 0.0
28/05:00pm 27.1 21.9 14.5 46 7.7 SSW 35 46 19 25 1001.7 1001.0 0.0
28/04:30pm 29.9 24.0 14.8 39 9.3 SSW 39 50 21 27 1001.8 1001.1 0.0
28/04:17pm 30.8 26.8 13.1 34 10.6 WSW 26 59 14 32 1001.4 1000.7 0.0
28/04:00pm 31.9 27.6 10.6 27 12.4 SW 24 35 13 19 1001.6 1000.9 0.0
28/03:30pm 32.2 27.6 9.7 25 12.9 W 24 39 13 21 1001.8 1001.1 0.0
28/03:00pm 31.2 26.5 9.4 26 12.5 WNW 24 37 13 20 1002.3 1001.5 0.0
28/02:30pm 31.2 25.0 10.0 27 12.2 NW 33 44 18 24 1002.7 1001.9 0.0
28/02:00pm 31.7 26.2 10.4 27 12.4 NW 30 57 16 31 1003.1 1002.3 0.0
28/01:52pm 31.6 25.9 9.8 26 12.5 NW 30 57 16 31 1003.3 1002.5 0.0
28/01:30pm 30.6 24.1 10.5 29 11.6 NNW 35 50 19 27 1003.4 1002.6 0.0
28/01:00pm 30.3 22.4 10.8 30 11.3 NNW 43 54 23 29 1003.7 1002.9 0.0
28/12:30pm 29.6 22.8 10.7 31 10.9 N 37 52 20 28 1004.3 1003.5 0.0
28/12:00pm 27.7 21.8 11.3 36 9.5 N 33 46 18 25 1004.7 1004.0 0.0
28/11:30am 26.4 20.7 11.3 39 8.7 N 32 44 17 24 1005.2 1004.5 0.0
28/11:00am 25.1 20.2 11.3 42 7.9 N 28 37 15 20 1005.4 1004.7 0.0
28/10:30am 24.1 20.2 12.1 47 6.9 NNW 24 35 13 19 1005.6 1004.9 0.0
28/10:00am 22.3 19.8 13.6 58 5.1 N 19 24 10 13 1005.6 1004.9 0.0
28/09:30am 20.7 18.9 13.2 62 4.3 N 15 24 8 13 1005.6 1004.9 0.0
28/09:00am 20.1 18.3 13.3 65 3.9 N 15 22 8 12 1005.9 1005.2 0.0
28/08:30am 19.0 18.4 13.6 71 3.1 N 9 13 5 7 1006.2 1005.5 0.0
28/08:00am 18.5 16.5 13.8 74 2.7 W 17 32 9 17 1006.6 1005.8 0.0
28/07:30am 19.3 17.9 12.3 64 3.9 NW 11 20 6 11 1006.3 1005.6 0.0
28/07:00am 19.8 17.5 11.8 60 4.5 NNW 15 24 8 13 1005.8 1005.1 0.0
28/06:30am 20.0 17.2 11.5 58 4.7 N 17 20 9 11 1005.3 1004.6 0.0
28/06:00am 20.2 17.1 11.7 58 4.8 N 19 26 10 14 1005.4 1004.7 0.0
28/05:30am 19.6 16.6 11.9 61 4.3 NNE 19 22 10 12 1005.3 1004.6 0.0
28/05:00am 18.5 15.8 11.8 65 3.7 N 17 19 9 10 1005.9 1005.2 0.0
28/04:30am 17.9 16.0 11.9 68 3.3 N 13 17 7 9 1006.1 1005.4 0.0
28/04:00am 18.1 16.2 11.7 66 3.6 N 13 17 7 9 1006.4 1005.7 0.0
28/03:30am 18.1 16.1 11.4 65 3.7 N 13 17 7 9 1006.7 1005.9 0.0
28/03:00am 17.7 15.7 11.5 67 3.4 NNE 13 15 7 8 1006.9 1006.1 0.0
28/02:30am 17.6 16.0 11.6 68 3.3 N 11 13 6 7 1007.6 1006.8 0.0
28/02:00am 17.8 15.8 11.6 67 3.4 NNE 13 15 7 8 1007.8 1007.0 0.0
28/01:30am 17.7 16.5 11.7 68 3.3 NE 9 17 5 9 1008.6 1007.9 0.0
28/01:00am 17.2 16.0 11.7 70 3.0 E 9 9 5 5 1009.3 1008.6 0.0
28/12:30am 16.6 15.7 11.3 71 2.9 ESE 7 9 4 5 1009.9 1009.2 0.0
28/12:00am 16.7 14.7 11.4 71 2.9 ESE 13 15 7 8 1010.2 1009.5 0.0

Other Formats:

Comma delimited format used in spreadsheet applications
http://www.bom.gov.au/fwo/IDV60801/IDV60801.94829.axf

JavaScript Object Notation format (JSON) in row-major order
http://www.bom.gov.au/fwo/IDV60801/IDV60801.94829.json